Latest Weather Observations for Moruya Airport

IDN60901

Issued at 7:45 am EST Thursday 18 September 2014 (issued every 10 minutes, with the page automatically refreshed every 10 minutes)

About weather observations | Map of Canberra area stations | Latest observations for Canberra area | Other Formats
Station Details ID: 069148 Name: MORUYA AIRPORT AWS Lat: -35.90 Lon: 150.14 Height: 4.0 m
Data from the previous 72 hours. | See also: Recent months for locations in Aust Capital Territory
Date/Time
EST
Tmp

°C
App
Tmp
°C
Dew
Point
°C
Rel
Hum
%
Delta-T

°C
Wind Press
QNH
hPa
Press
MSL
hPa
Rain
since
9 am
mm
Dir
 
Spd
km/h
Gust
km/h
Spd
kts
Gust
kts
18/07:30am 11.6 7.9 2.1 52 4.1 W 11 15 6 8 1017.3 1017.3 0.0
18/07:00am 10.6 6.4 1.9 55 3.7 W 13 20 7 11 1017.2 1017.2 0.0
18/06:30am 9.0 5.3 2.3 63 2.8 W 11 17 6 9 1016.7 1016.7 0.0
18/06:00am 8.2 4.1 2.2 66 2.5 W 13 20 7 11 1016.5 1016.5 0.0
18/05:30am 8.2 4.1 2.4 67 2.4 W 13 17 7 9 1016.2 1016.2 0.0
18/05:00am 8.4 4.5 3.3 70 2.2 W 13 20 7 11 1015.9 1015.9 0.0
18/04:30am 8.4 4.5 3.5 71 2.1 W 13 19 7 10 1015.5 1015.5 0.0
18/04:00am 7.9 5.0 2.8 70 2.1 WNW 7 11 4 6 1015.0 1015.0 0.0
18/03:30am 9.9 6.2 2.3 59 3.2 W 11 15 6 8 1015.0 1015.0 0.0
18/03:00am 9.8 6.1 2.6 61 3.1 WSW 11 17 6 9 1014.9 1014.9 0.0
18/02:30am 10.8 6.8 2.6 57 3.5 WSW 13 17 7 9 1014.8 1014.8 0.0
18/02:00am 11.0 7.0 3.1 58 3.4 WSW 13 20 7 11 1014.8 1014.8 0.0
18/01:30am 11.1 7.2 3.6 60 3.3 WSW 13 20 7 11 1014.8 1014.8 0.0
18/01:00am 10.9 7.1 4.1 63 3.0 W 13 22 7 12 1014.8 1014.8 0.0
18/12:30am 11.1 6.2 3.9 61 3.2 SW 19 30 10 16 1014.7 1014.7 0.0
18/12:00am 11.3 6.9 5.0 65 2.9 SW 17 26 9 14 1014.4 1014.4 0.0
 
Date/Time
EST
Tmp

°C
App
Tmp
°C
Dew
Point
°C
Rel
Hum
%
Delta-T

°C
Wind Press
QNH
hPa
Press
MSL
hPa
Rain
since
9 am
mm
Dir
 
Spd
km/h
Gust
km/h
Spd
kts
Gust
kts
17/11:30pm 11.7 8.0 6.4 70 2.5 SW 15 22 8 12 1014.3 1014.3 0.0
17/11:00pm 10.1 8.4 3.8 65 2.8 S 2 6 1 3 1013.8 1013.8 0.0
17/10:30pm 12.3 8.8 3.3 54 4.0 SW 11 13 6 7 1013.5 1013.5 0.0
17/10:00pm 13.4 9.4 2.6 48 4.8 W 13 24 7 13 1013.1 1013.1 0.0
17/09:30pm 12.9 9.5 1.9 47 4.7 WSW 9 11 5 6 1012.8 1012.8 0.0
17/09:00pm 13.5 10.0 1.5 44 5.2 WSW 9 13 5 7 1012.4 1012.4 0.0
17/08:30pm 15.0 10.8 1.5 40 5.9 WSW 13 24 7 13 1011.9 1011.9 0.0
17/08:00pm 14.6 10.8 1.8 42 5.6 W 11 19 6 10 1011.6 1011.6 0.0
17/07:30pm 11.5 8.3 2.8 55 3.8 W 9 13 5 7 1011.0 1011.0 0.0
17/07:00pm 12.7 10.0 3.6 54 4.1 W 7 11 4 6 1010.5 1010.5 0.0
17/06:30pm 14.9 11.5 1.8 41 5.7 W 9 15 5 8 1010.2 1010.2 0.0
17/06:00pm 16.7 12.0 1.2 35 6.8 W 15 30 8 16 1010.0 1010.0 0.0
17/05:30pm 17.3 12.9 2.9 38 6.6 W 15 24 8 13 1009.6 1009.6 0.0
17/05:00pm 17.9 15.0 6.4 47 5.7 W 11 20 6 11 1009.2 1009.2 0.0
17/04:30pm 17.3 14.0 10.9 66 3.4 NNE 19 24 10 13 1008.7 1008.6 0.0
17/04:00pm 17.4 14.1 11.0 66 3.5 NNE 19 24 10 13 1008.4 1008.3 0.0
17/03:30pm 17.7 14.1 10.6 63 3.8 NE 20 26 11 14 1008.3 1008.2 0.0
17/03:00pm 17.8 14.0 9.9 60 4.2 NE 20 24 11 13 1008.1 1008.0 0.0
17/02:30pm 17.4 13.9 10.3 63 3.8 ENE 19 22 10 12 1008.2 1008.1 0.0
17/02:00pm 17.8 14.4 10.4 62 4.0 E 19 24 10 13 1008.2 1008.1 0.0
17/01:30pm 17.6 14.0 10.0 61 4.0 NE 19 22 10 12 1008.1 1008.0 0.0
17/01:00pm 17.8 14.1 10.2 61 4.0 ENE 20 24 11 13 1008.3 1008.2 0.0
17/12:30pm 17.7 14.2 10.1 61 4.0 E 19 20 10 11 1008.4 1008.3 0.0
17/12:00pm 18.0 15.3 10.4 61 4.1 E 15 19 8 10 1008.8 1008.7 0.0
17/11:30am 17.6 14.9 10.2 62 3.9 ESE 15 19 8 10 1009.1 1009.1 0.0
17/11:00am 17.5 14.4 10.4 63 3.8 E 17 19 9 10 1009.3 1009.3 0.0
17/10:30am 17.3 15.1 10.9 66 3.4 ESE 13 17 7 9 1009.7 1009.7 0.0
17/10:00am 16.6 14.4 10.9 69 3.1 E 13 15 7 8 1009.9 1009.9 0.0
17/09:30am 16.7 14.6 11.0 69 3.1 ESE 13 15 7 8 1010.1 1010.1 0.0
17/09:00am 16.0 14.6 11.0 72 2.7 SE 9 11 5 6 1010.5 1010.5 0.0
17/08:30am 14.1 13.1 10.9 81 1.7 SSW 7 15 4 8 1010.8 1010.8 0.0
17/08:00am 13.0 12.2 11.1 88 1.0 NNW 6 9 3 5 1010.8 1010.8 0.0
17/07:30am 12.7 11.8 11.4 92 0.7 WSW 7 9 4 5 1010.5 1010.5 0.0
17/07:00am 11.0 10.6 11.0 100 0.0 W 4 9 2 5 1010.3 1010.3 0.0
17/06:30am 10.5 9.9 10.5 100 0.0 WNW 4 6 2 3 1010.0 1010.0 0.0
17/06:00am 10.3 9.0 10.1 99 0.1 W 7 7 4 4 1009.7 1009.7 0.0
17/05:30am 10.7 10.1 10.4 98 0.2 WNW 4 7 2 4 1009.4 1009.4 0.0
17/05:00am 10.9 9.9 10.4 97 0.3 W 6 11 3 6 1009.1 1009.1 0.0
17/04:30am 10.6 9.5 10.1 97 0.3 W 6 7 3 4 1008.8 1008.7 0.0
17/04:00am 10.4 8.7 9.8 96 0.3 WNW 9 13 5 7 1008.5 1008.4 0.0
17/03:30am 10.8 10.3 9.2 90 0.8 WSW 2 6 1 3 1008.4 1008.3 0.0
17/03:00am 11.6 9.9 9.9 89 0.9 SSW 9 13 5 7 1008.3 1008.2 0.0
17/02:30am 11.2 9.8 9.6 90 0.8 W 7 11 4 6 1008.2 1008.1 0.0
17/02:00am 11.1 9.5 10.2 94 0.5 WNW 9 13 5 7 1008.2 1008.1 0.0
17/01:30am 10.8 9.9 10.8 100 0.0 WNW 6 9 3 5 1008.3 1008.2 0.0
17/01:00am 11.3 10.3 11.0 98 0.2 SW 7 11 4 6 1008.3 1008.2 0.0
17/12:30am 12.2 11.3 11.3 94 0.5 W 7 9 4 5 1008.3 1008.2 0.0
17/12:00am 13.2 12.1 11.8 91 0.7 WNW 9 13 5 7 1008.3 1008.2 0.0
 
Date/Time
EST
Tmp

°C
App
Tmp
°C
Dew
Point
°C
Rel
Hum
%
Delta-T

°C
Wind Press
QNH
hPa
Press
MSL
hPa
Rain
since
9 am
mm
Dir
 
Spd
km/h
Gust
km/h
Spd
kts
Gust
kts
16/11:30pm 13.2 12.0 11.6 90 0.9 W 9 11 5 6 1008.1 1008.0 0.0
16/11:00pm 14.1 12.0 12.5 90 0.9 SW 15 19 8 10 1008.0 1007.9 0.0
16/10:30pm 14.6 12.9 13.5 93 0.6 SSW 15 20 8 11 1008.2 1008.1 0.0
16/10:00pm 14.6 13.6 14.6 100 0.0 SSW 13 24 7 13 1008.1 1008.0 0.0
16/09:30pm 14.2 15.2 14.2 100 0.0 SW 2 7 1 4 1007.8 1007.7 0.0
16/09:00pm 13.0 12.5 12.8 99 0.1 W 7 11 4 6 1007.4 1007.3 0.0
16/08:30pm 13.5 13.4 13.2 98 0.2 W 6 9 3 5 1007.2 1007.1 0.0
16/08:00pm 14.3 14.3 13.5 95 0.4 S 6 7 3 4 1006.8 1006.7 0.0
16/07:30pm 13.5 13.1 12.4 93 0.6 SSW 6 7 3 4 1006.3 1006.2 0.0
16/07:00pm 13.6 12.8 11.8 89 1.0 WNW 7 11 4 6 1006.0 1005.9 0.0
16/06:30pm 14.0 12.9 12.0 88 1.1 WNW 9 11 5 6 1005.5 1005.4 0.0
16/06:00pm 15.4 14.9 12.0 80 1.9 WNW 6 7 3 4 1005.2 1005.1 0.0
16/05:30pm 17.4 16.6 11.0 66 3.4 SW 6 7 3 4 1004.9 1004.8 0.0
16/05:00pm 18.8 17.9 11.4 62 4.1 NW 7 17 4 9 1004.7 1004.6 0.0
16/04:30pm 19.7 19.9 16.7 83 1.8 NE 11 17 6 9 1004.3 1004.2 0.0
16/04:00pm 19.4 19.3 17.0 86 1.5 N 13 24 7 13 1004.6 1004.5 0.0
16/03:30pm 19.0 17.7 16.8 87 1.3 NNE 19 26 10 14 1004.4 1004.3 0.0
16/03:00pm 18.0 15.4 16.9 93 0.7 ENE 26 32 14 17 1004.6 1004.5 0.0
16/02:30pm 19.3 18.0 16.9 86 1.5 ENE 19 22 10 12 1004.9 1004.8 0.0
16/02:00pm 19.6 18.4 17.0 85 1.6 E 19 22 10 12 1005.1 1005.0 0.0
16/01:30pm 19.8 18.7 17.2 85 1.6 ENE 19 22 10 12 1005.2 1005.1 0.0
16/01:00pm 19.1 18.5 15.6 80 2.1 ENE 13 20 7 11 1005.6 1005.5 0.0
16/12:30pm 18.3 18.0 15.4 83 1.7 E 11 15 6 8 1006.2 1006.1 0.0
16/12:00pm 17.9 17.4 14.8 82 1.8 ENE 11 13 6 7 1007.1 1007.0 0.0
16/11:30am 17.4 16.0 14.5 83 1.7 E 15 17 8 9 1008.3 1008.2 0.0
16/11:00am 17.5 17.0 14.8 84 1.6 E 11 15 6 8 1008.9 1008.9 0.0
16/10:30am 17.2 16.9 14.3 83 1.7 E 9 13 5 7 1009.3 1009.3 0.0
16/10:00am 16.4 17.2 14.9 91 0.9 E 4 7 2 4 1009.8 1009.8 0.0
16/09:30am 16.3 17.1 14.8 91 0.9 N 4 7 2 4 1010.1 1010.1 0.0
16/09:00am 14.8 15.6 14.8 100 0.0 WSW 4 11 2 6 1010.4 1010.4 2.0
16/08:30am 13.5 12.9 13.5 100 0.0 W 9 13 5 7 1010.4 1010.4 2.0
16/08:00am 13.4 13.1 13.4 100 0.0 W 7 13 4 7 1010.6 1010.6 1.8
16/07:30am 13.4 14.1 13.4 100 0.0 NNW 2 9 1 5 1010.5 1010.5 1.6
16/07:00am 12.8 13.3 12.8 100 0.0 W 2 7 1 4 1010.7 1010.7 1.6
16/06:49am 12.6 12.3 12.6 100 0.0 WNW 6 9 3 5 1010.9 1010.9 1.6
16/06:30am 11.6 10.8 11.6 100 0.0 W 7 11 4 6 1011.1 1011.1 1.6
16/06:00am 12.1 11.4 12.1 100 0.0 NW 7 9 4 5 1011.2 1011.2 1.6
16/05:46am 12.1 11.4 12.1 100 0.0 N 7 9 4 5 1011.2 1011.2 1.6
16/05:30am 12.5 13.3 12.5 100 0.0 CALM 0 4 0 2 1011.3 1011.3 1.6
16/05:00am 12.7 12.4 12.7 100 0.0 SW 6 13 3 7 1011.7 1011.7 1.4
16/04:30am 12.0 12.6 12.0 100 0.0 CALM 0 0 0 0 1012.1 1012.1 1.2
16/04:00am 12.2 11.2 12.2 100 0.0 W 9 13 5 7 1011.5 1011.5 1.2
16/03:32am 11.7 11.9 11.7 100 0.0 WNW 2 7 1 4 1011.5 1011.5 1.2
16/03:30am 11.6 12.1 11.6 100 0.0 CALM 0 6 0 3 1011.6 1011.6 1.2
16/03:00am 11.5 12.0 11.5 100 0.0 CALM 0 0 0 0 1011.7 1011.7 1.2
16/02:30am 11.8 11.2 11.8 100 0.0 NW 6 7 3 4 1012.1 1012.1 1.2
16/02:17am 12.2 12.9 12.2 100 0.0 CALM 0 4 0 2 1012.1 1012.1 1.2
16/02:00am 12.6 12.3 12.6 100 0.0 WNW 6 7 3 4 1012.3 1012.3 1.2
16/01:30am 12.8 12.3 12.8 100 0.0 WNW 7 11 4 6 1012.7 1012.7 1.2
16/01:00am 12.9 12.5 12.9 100 0.0 W 7 11 4 6 1013.1 1013.1 1.2
16/12:30am 12.9 13.8 12.9 100 0.0 CALM 0 0 0 0 1013.4 1013.4 1.2
16/12:26am 12.9 13.8 12.9 100 0.0 CALM 0 0 0 0 1013.4 1013.4 1.2
16/12:09am 12.9 13.8 12.9 100 0.0 CALM 0 0 0 0 1013.7 1013.7 0.8
16/12:00am 12.9 13.8 12.9 100 0.0 CALM 0 0 0 0 1013.9 1013.9 0.4
 
Date/Time
EST
Tmp

°C
App
Tmp
°C
Dew
Point
°C
Rel
Hum
%
Delta-T

°C
Wind Press
QNH
hPa
Press
MSL
hPa
Rain
since
9 am
mm
Dir
 
Spd
km/h
Gust
km/h
Spd
kts
Gust
kts
15/11:30pm 13.0 13.6 13.0 100 0.0 W 2 6 1 3 1014.2 1014.2 0.2
15/11:00pm 12.8 13.7 12.8 100 0.0 CALM 0 0 0 0 1014.6 1014.6 0.0
15/10:30pm 12.6 13.4 12.6 100 0.0 CALM 0 0 0 0 1014.8 1014.8 0.0
15/10:00pm 12.7 13.5 12.7 100 0.0 CALM 0 0 0 0 1014.9 1014.9 0.0
15/09:30pm 12.8 13.6 12.6 99 0.1 CALM 0 0 0 0 1015.1 1015.1 0.0
15/09:00pm 12.9 13.7 12.7 99 0.1 CALM 0 0 0 0 1015.4 1015.4 0.0
15/08:30pm 12.9 13.7 12.4 97 0.3 CALM 0 0 0 0 1015.5 1015.5 0.0
15/08:00pm 13.4 14.1 12.1 92 0.7 CALM 0 0 0 0 1015.3 1015.3 0.0
15/07:30pm 14.8 14.3 12.7 87 1.2 NNW 7 9 4 5 1015.3 1015.3 0.0
15/07:00pm 15.5 15.0 12.6 83 1.6 N 7 11 4 6 1015.1 1015.1 0.0
15/06:30pm 15.5 14.5 12.4 82 1.7 N 9 13 5 7 1015.0 1015.0 0.0
15/06:00pm 15.7 13.9 12.1 79 2.0 N 13 19 7 10 1015.0 1015.0 0.0
15/05:30pm 16.4 13.6 12.6 78 2.1 NNE 19 24 10 13 1014.8 1014.8 0.0
15/05:00pm 16.7 13.9 12.5 76 2.3 NNE 19 26 10 14 1014.7 1014.7 0.0
15/04:30pm 17.2 14.5 12.9 76 2.4 NNE 19 24 10 13 1014.6 1014.6 0.0
15/04:00pm 17.0 14.1 12.9 77 2.3 NE 20 26 11 14 1014.5 1014.5 0.0
15/03:30pm 17.3 14.4 12.8 75 2.5 NE 20 28 11 15 1014.6 1014.6 0.0
15/03:00pm 17.1 14.1 12.4 74 2.6 NE 20 30 11 16 1014.7 1014.7 0.0
15/02:30pm 17.6 14.2 12.5 72 2.8 NE 22 28 12 15 1014.8 1014.8 0.0
15/02:00pm 17.4 13.7 11.4 68 3.3 NE 22 30 12 16 1015.0 1015.0 0.0
15/01:30pm 17.5 13.4 11.5 68 3.3 NE 24 28 13 15 1015.2 1015.2 0.0
15/01:00pm 18.6 15.3 12.8 69 3.2 NE 22 28 12 15 1015.4 1015.4 0.0
15/12:30pm 18.4 15.0 12.6 69 3.2 NE 22 24 12 13 1015.7 1015.7 0.0
15/12:00pm 18.2 15.2 12.6 70 3.1 ENE 20 24 11 13 1016.2 1016.2 0.0
15/11:30am 17.8 15.0 12.7 72 2.8 ENE 19 22 10 12 1016.6 1016.6 0.0
15/11:00am 17.6 15.2 12.5 72 2.8 ENE 17 20 9 11 1017.1 1017.1 0.0
15/10:30am 17.3 15.1 12.0 71 2.9 ENE 15 19 8 10 1017.4 1017.4 0.0
15/10:00am 17.8 15.7 12.5 71 2.9 NE 15 17 8 9 1017.6 1017.6 0.0
15/09:30am 16.5 15.5 12.3 76 2.3 SE 9 13 5 7 1018.0 1018.0 0.0
15/09:00am 16.1 15.7 13.0 82 1.7 SSE 7 11 4 6 1018.2 1018.2 0.8
15/08:30am 15.3 16.0 13.3 88 1.1 SE 2 7 1 4 1018.1 1018.1 0.8
15/08:00am 14.3 14.2 13.3 94 0.6 NW 6 7 3 4 1018.1 1018.1 0.8

Latest Capital City Observations: Canberra | Sydney | Melbourne | Brisbane | Adelaide | Perth | Hobart | Darwin

Other Formats:

Comma delimited format used in spreadsheet applications
http://www.bom.gov.au/fwo/IDN60903/IDN60903.95937.axf

JavaScript Object Notation format (JSON) in row-major order
http://www.bom.gov.au/fwo/IDN60903/IDN60903.95937.json